createdAt,value
2022-10-22T00:00:07.174Z,10.9
2022-10-22T00:04:11.210Z,10.9
2022-10-22T00:06:13.233Z,10.8
2022-10-22T00:08:18.313Z,10.8
2022-10-22T00:10:20.318Z,10.8
2022-10-22T00:12:22.357Z,10.7
2022-10-22T00:16:41.560Z,10.7
2022-10-22T00:24:52.698Z,10.8
2022-10-22T00:26:54.702Z,10.8
2022-10-22T00:28:56.728Z,10.8
2022-10-22T00:30:58.745Z,10.7
2022-10-22T00:35:05.848Z,10.8
2022-10-22T00:41:11.911Z,10.7
2022-10-22T00:43:13.934Z,10.7
2022-10-22T00:47:17.972Z,10.7
2022-10-22T00:49:23.080Z,10.8
2022-10-22T00:51:25.073Z,10.8
2022-10-22T00:53:27.100Z,10.8
2022-10-22T00:57:31.139Z,10.9
2022-10-22T00:59:33.171Z,11
2022-10-22T01:01:35.211Z,11.1
2022-10-22T01:03:40.263Z,11.1
2022-10-22T01:05:42.319Z,11.1
2022-10-22T01:07:44.305Z,11.1
2022-10-22T01:08:46.910Z,11.2
2022-10-22T01:10:48.891Z,11.1
2022-10-22T01:12:50.939Z,11.1
2022-10-22T01:14:52.971Z,11.1
2022-10-22T01:16:58.036Z,11
2022-10-22T01:19:00.083Z,11
2022-10-22T01:21:02.082Z,11
2022-10-22T01:23:04.129Z,10.9
2022-10-22T01:25:06.141Z,10.9
2022-10-22T01:29:10.212Z,11
2022-10-22T01:31:15.263Z,11.1
2022-10-22T01:37:21.304Z,11.1
2022-10-22T01:39:23.333Z,11.1
2022-10-22T01:41:25.361Z,11.2
2022-10-22T01:43:27.386Z,11.2
2022-10-22T01:45:32.456Z,11.2
2022-10-22T01:49:36.507Z,11.2
2022-10-22T01:51:38.522Z,11.2
2022-10-22T01:53:40.594Z,11.2
2022-10-22T01:55:42.571Z,11.3
2022-10-22T01:57:44.575Z,11.5
2022-10-22T02:01:51.682Z,11.4
2022-10-22T02:03:53.699Z,11.5
2022-10-22T02:06:58.304Z,11.5
2022-10-22T02:11:02.374Z,11.4
2022-10-22T02:17:11.458Z,11.1
2022-10-22T02:19:13.495Z,11.1
2022-10-22T02:23:17.527Z,10.9
2022-10-22T02:25:19.568Z,10.9
2022-10-22T02:29:26.672Z,10.9
2022-10-22T02:33:30.710Z,10.9
2022-10-22T02:35:32.752Z,11
2022-10-22T02:37:34.765Z,10.8
2022-10-22T02:41:41.860Z,10.9
2022-10-22T02:43:43.878Z,10.9
2022-10-22T02:45:45.871Z,10.8
2022-10-22T02:51:51.955Z,10.7
2022-10-22T02:53:53.948Z,10.8
2022-10-22T02:55:59.031Z,10.8
2022-10-22T02:58:01.038Z,10.8
2022-10-22T03:00:03.100Z,10.9
2022-10-22T03:05:11.151Z,11
2022-10-22T03:13:22.282Z,10.7
2022-10-22T03:15:24.326Z,10.7
2022-10-22T03:17:26.311Z,10.7
2022-10-22T03:19:28.309Z,10.8
2022-10-22T03:21:30.300Z,10.8
2022-10-22T03:23:35.402Z,10.9
2022-10-22T03:27:39.690Z,10.8
2022-10-22T03:29:41.413Z,10.7
2022-10-22T03:31:43.433Z,10.8
2022-10-22T03:33:45.441Z,10.8
2022-10-22T03:35:47.464Z,10.8
2022-10-22T03:37:52.532Z,10.7
2022-10-22T03:39:54.528Z,10.7
2022-10-22T03:54:11.681Z,10.6
2022-10-22T03:56:13.676Z,10.6
2022-10-22T03:58:30.292Z,10.6
2022-10-22T04:00:32.363Z,10.6
2022-10-22T04:02:34.332Z,10.7
2022-10-22T04:06:41.415Z,10.7
2022-10-22T04:08:43.505Z,10.6
2022-10-22T04:10:45.433Z,10.7
2022-10-22T04:20:58.593Z,10.8
2022-10-22T04:25:02.692Z,10.8
2022-10-22T04:27:04.611Z,10.8
2022-10-22T04:29:06.964Z,10.7
2022-10-22T04:31:08.641Z,10.7
2022-10-22T04:33:13.729Z,10.7
2022-10-22T04:35:15.824Z,10.7
2022-10-22T04:39:19.779Z,10.7
2022-10-22T04:41:21.789Z,10.8
2022-10-22T04:43:23.782Z,10.9
2022-10-22T04:45:25.819Z,10.9
2022-10-22T04:49:32.899Z,10.9
2022-10-22T04:51:34.896Z,10.8
2022-10-22T04:52:37.412Z,10.8
2022-10-22T04:56:41.453Z,10.7
2022-10-22T04:58:43.459Z,10.7
2022-10-22T05:00:48.626Z,10.6
2022-10-22T05:04:52.559Z,10.7
2022-10-22T05:06:54.576Z,10.7
2022-10-22T05:08:56.616Z,10.7
2022-10-22T05:10:58.609Z,10.6
2022-10-22T05:13:00.628Z,10.6
2022-10-22T05:15:05.708Z,10.5
2022-10-22T05:17:07.707Z,10.5
2022-10-22T05:19:09.738Z,10.5
2022-10-22T05:21:11.761Z,10.5
2022-10-22T05:23:13.759Z,10.5
2022-10-22T05:25:15.777Z,10.5
2022-10-22T05:29:22.860Z,10.4
2022-10-22T05:31:24.867Z,10.5
2022-10-22T05:33:26.890Z,10.5
2022-10-22T05:35:28.896Z,10.4
2022-10-22T05:37:30.918Z,10.4
2022-10-22T05:39:32.932Z,10.5
2022-10-22T05:41:34.952Z,10.5
2022-10-22T05:43:40.013Z,10.6
2022-10-22T05:45:42.049Z,10.7
2022-10-22T05:47:44.048Z,10.7
2022-10-22T05:48:46.569Z,10.8
2022-10-22T05:50:48.595Z,10.8
2022-10-22T05:52:50.599Z,10.9
2022-10-22T05:54:52.621Z,11.2
2022-10-22T05:56:57.687Z,11.1
2022-10-22T05:58:59.792Z,11.1
2022-10-22T06:09:09.803Z,11.1
2022-10-22T06:11:14.851Z,11.2
2022-10-22T06:13:16.859Z,11.3
2022-10-22T06:15:18.860Z,11.3
2022-10-22T06:19:22.907Z,11.3
2022-10-22T06:21:24.904Z,11.3
2022-10-22T06:23:26.942Z,11.5
2022-10-22T06:25:31.989Z,11.5
2022-10-22T06:27:34.025Z,11.4
2022-10-22T06:29:36.007Z,11.5
2022-10-22T06:31:38.033Z,11.6
2022-10-22T06:33:40.064Z,11.6
2022-10-22T06:35:42.055Z,11.6
2022-10-22T06:37:44.078Z,11.7
2022-10-22T06:39:49.170Z,11.8
2022-10-22T06:41:51.167Z,11.8
2022-10-22T06:43:53.212Z,11.9
2022-10-22T06:44:55.755Z,12
2022-10-22T06:46:57.742Z,12
2022-10-22T06:48:59.768Z,12.1
2022-10-22T06:51:01.781Z,12.2
2022-10-22T06:53:07.002Z,12.2
2022-10-22T06:55:08.856Z,12.3
2022-10-22T06:59:12.903Z,12.4
2022-10-22T07:01:14.979Z,12.4
2022-10-22T07:03:16.908Z,12.5
2022-10-22T07:07:24.011Z,12.6
2022-10-22T07:15:32.077Z,12.9
2022-10-22T07:21:41.172Z,13.1
2022-10-22T07:23:43.215Z,13.2
2022-10-22T07:31:51.268Z,13.5
2022-10-22T07:33:53.298Z,13.5
2022-10-22T07:35:58.379Z,13.6
2022-10-22T07:38:00.389Z,13.5
2022-10-22T07:40:03.892Z,13.5
2022-10-22T07:42:25.149Z,13.5
2022-10-22T07:44:27.113Z,13.5
2022-10-22T07:46:29.119Z,13.6
2022-10-22T07:48:34.190Z,13.8
2022-10-22T07:50:36.233Z,13.8
2022-10-22T07:52:38.543Z,13.8
2022-10-22T07:54:40.247Z,13.8
2022-10-22T07:56:42.387Z,13.8
2022-10-22T07:58:44.270Z,13.8
2022-10-22T08:00:46.289Z,14
2022-10-22T08:02:51.426Z,14.2
2022-10-22T08:04:53.372Z,14.2
2022-10-22T08:06:55.387Z,14.4
2022-10-22T08:08:57.483Z,14.5
2022-10-22T08:10:59.437Z,14.5
2022-10-22T08:13:01.458Z,14.6
2022-10-22T08:15:03.486Z,14.6
2022-10-22T08:17:08.532Z,14.7
2022-10-22T08:19:10.574Z,14.8
2022-10-22T08:21:12.577Z,14.8
2022-10-22T08:23:14.592Z,14.9
2022-10-22T08:25:16.602Z,14.9
2022-10-22T08:27:18.615Z,15
2022-10-22T08:29:20.604Z,15
2022-10-22T08:31:25.696Z,15
2022-10-22T08:33:27.717Z,15.1
2022-10-22T08:35:29.701Z,15.1
2022-10-22T08:38:34.288Z,15.2
2022-10-22T08:40:36.333Z,15.2
2022-10-22T08:42:38.522Z,15.3
2022-10-22T08:44:43.367Z,15.3
2022-10-22T08:46:45.360Z,15.3
2022-10-22T08:48:47.374Z,15.2
2022-10-22T08:50:49.384Z,15.2
2022-10-22T08:52:51.370Z,15.2
2022-10-22T08:54:53.416Z,15.2
2022-10-22T08:56:56.899Z,15.2
2022-10-22T08:59:01.928Z,15.3
2022-10-22T09:01:03.937Z,15.3
2022-10-22T09:03:05.930Z,15.3
2022-10-22T09:05:11.513Z,15.3
2022-10-22T09:07:09.941Z,15.4
2022-10-22T09:09:12.053Z,15.4
2022-10-22T09:11:13.948Z,15.4
2022-10-22T09:13:19.031Z,15.4
2022-10-22T09:15:21.011Z,15.4
2022-10-22T09:17:23.013Z,15.4
2022-10-22T09:19:25.038Z,15.4
2022-10-22T09:21:27.007Z,15.5
2022-10-22T09:23:29.018Z,15.5
2022-10-22T09:25:31.043Z,15.5
2022-10-22T09:27:36.086Z,15.6
2022-10-22T09:32:43.239Z,15.6
2022-10-22T09:34:44.665Z,15.6
2022-10-22T09:36:46.656Z,15.7
2022-10-22T09:38:48.653Z,15.8
2022-10-22T09:40:53.714Z,15.6
2022-10-22T09:42:55.716Z,15.6
2022-10-22T09:44:57.739Z,15.6
2022-10-22T09:46:59.737Z,15.6
2022-10-22T09:49:01.761Z,15.6
2022-10-22T09:51:03.828Z,15.6
2022-10-22T09:53:05.755Z,15.6
2022-10-22T09:55:10.851Z,15.8
2022-10-22T09:57:12.826Z,15.7
2022-10-22T09:59:14.848Z,15.9
2022-10-22T10:01:16.832Z,16
2022-10-22T10:03:18.899Z,16
2022-10-22T10:05:20.835Z,16.1
2022-10-22T10:07:22.869Z,16.2
2022-10-22T10:09:27.936Z,16.2
2022-10-22T10:11:29.919Z,16.3
2022-10-22T10:13:31.936Z,16.4
2022-10-22T10:15:33.933Z,16.6
2022-10-22T10:17:35.906Z,16.6
2022-10-22T10:21:39.901Z,16.3
2022-10-22T10:23:44.964Z,16.2
2022-10-22T10:25:46.963Z,16.1
2022-10-22T10:27:48.960Z,16.2
2022-10-22T10:28:51.496Z,16.3
2022-10-22T10:30:53.495Z,16.4
2022-10-22T10:32:55.480Z,16.5
2022-10-22T10:34:57.503Z,16.7
2022-10-22T10:37:02.559Z,16.8
2022-10-22T10:39:04.552Z,16.9
2022-10-22T10:41:06.539Z,16.9
2022-10-22T10:43:08.535Z,17
2022-10-22T10:45:10.517Z,16.8
2022-10-22T10:47:12.514Z,16.7
2022-10-22T10:49:14.503Z,16.7
2022-10-22T10:51:19.603Z,16.9
2022-10-22T10:53:21.556Z,17
2022-10-22T10:55:23.550Z,17.6
2022-10-22T10:57:25.538Z,17.9
2022-10-22T10:59:27.510Z,18.6
2022-10-22T11:01:29.542Z,18
2022-10-22T11:03:31.507Z,17.7
2022-10-22T11:05:36.565Z,17.6
2022-10-22T11:07:38.542Z,18
2022-10-22T11:11:42.505Z,18.4
2022-10-22T11:13:44.499Z,18.5
2022-10-22T11:17:48.462Z,19.4
2022-10-22T11:19:57.859Z,20.6
2022-10-22T11:21:55.515Z,21.6
2022-10-22T11:23:57.503Z,21.6
2022-10-22T11:26:20.166Z,21.4
2022-10-22T11:28:22.143Z,21.6
2022-10-22T11:30:24.132Z,20.7
2022-10-22T11:34:33.841Z,20.7
2022-10-22T11:36:33.150Z,21.5
2022-10-22T11:40:37.091Z,20.9
2022-10-22T11:44:41.043Z,21.6
2022-10-22T11:48:48.082Z,21.5
2022-10-22T11:50:50.056Z,21
2022-10-22T11:52:52.008Z,20.4
2022-10-22T11:54:53.970Z,20.4
2022-10-22T11:56:55.940Z,21.7
2022-10-22T12:01:02.952Z,19.5
2022-10-22T12:07:08.803Z,18.9
2022-10-22T12:09:10.874Z,21.3
2022-10-22T12:11:12.715Z,21.8
2022-10-22T12:17:21.674Z,22.3
2022-10-22T12:19:23.636Z,22.7
2022-10-22T12:20:26.139Z,21.5
2022-10-22T12:22:28.086Z,21.3
2022-10-22T12:24:30.048Z,20.2
2022-10-22T12:26:32.002Z,19.5
2022-10-22T12:28:37.052Z,18.4
2022-10-22T12:30:38.975Z,18.4
2022-10-22T12:34:42.930Z,20.3
2022-10-22T12:36:44.821Z,19
2022-10-22T12:38:46.780Z,18.3
2022-10-22T12:40:49.154Z,18.1
2022-10-22T12:44:55.762Z,18.3
2022-10-22T12:46:57.675Z,18.1
2022-10-22T12:48:59.638Z,17.9
2022-10-22T12:51:01.615Z,17.8
2022-10-22T12:53:03.706Z,17.8
2022-10-22T12:55:05.540Z,18.2
2022-10-22T12:57:10.579Z,18.2
2022-10-22T12:59:12.537Z,18.2
2022-10-22T13:01:14.542Z,18.3
2022-10-22T13:03:16.651Z,18.5
2022-10-22T13:05:18.437Z,18.5
2022-10-22T13:07:22.259Z,18.4
2022-10-22T13:09:25.271Z,18.2
2022-10-22T13:11:27.437Z,18.6
2022-10-22T13:13:29.554Z,18.9
2022-10-22T13:15:31.401Z,18.9
2022-10-22T13:16:33.932Z,19.5
2022-10-22T13:18:36.032Z,19.9
2022-10-22T13:20:37.862Z,20.3
2022-10-22T13:22:39.842Z,20.9
2022-10-22T13:24:44.941Z,20.7
2022-10-22T13:26:46.852Z,20.8
2022-10-22T13:28:48.964Z,21.1
2022-10-22T13:30:50.818Z,21
2022-10-22T13:32:52.788Z,21.2
2022-10-22T13:34:54.747Z,21.8
2022-10-22T13:36:56.706Z,21.4
2022-10-22T13:39:01.895Z,20.7
2022-10-22T13:41:03.723Z,20.4
2022-10-22T13:43:05.687Z,19.6
2022-10-22T13:45:07.659Z,20.5
2022-10-22T13:47:09.618Z,21
2022-10-22T13:49:11.580Z,21.5
2022-10-22T13:51:13.523Z,20.5
2022-10-22T13:53:18.992Z,20.8
2022-10-22T13:55:20.551Z,20.9
2022-10-22T13:57:22.516Z,21.3
2022-10-22T13:59:24.477Z,21.3
2022-10-22T14:01:26.402Z,20.2
2022-10-22T14:03:28.380Z,20.5
2022-10-22T14:05:30.328Z,18.7
2022-10-22T14:07:35.378Z,18.2
2022-10-22T14:09:37.349Z,18.1
2022-10-22T14:11:39.283Z,17.9
2022-10-22T14:12:41.804Z,19.2
2022-10-22T14:14:43.880Z,18.9
2022-10-22T14:16:45.741Z,18
2022-10-22T14:18:47.721Z,17.7
2022-10-22T14:20:52.775Z,17.8
2022-10-22T14:22:54.755Z,17.8
2022-10-22T14:24:56.725Z,19.3
2022-10-22T14:26:58.691Z,19.9
2022-10-22T14:29:11.674Z,20.1
2022-10-22T14:31:02.646Z,20.3
2022-10-22T14:33:04.621Z,20.7
2022-10-22T14:35:09.696Z,21.1
2022-10-22T14:37:11.671Z,20.9
2022-10-22T14:39:13.676Z,20.1
2022-10-22T14:41:15.608Z,19.8
2022-10-22T14:43:17.592Z,19.8
2022-10-22T14:45:19.568Z,19.6
2022-10-22T14:47:21.524Z,19.5
2022-10-22T14:49:28.095Z,19.4
2022-10-22T14:51:30.062Z,19.4
2022-10-22T14:53:32.031Z,19.5
2022-10-22T14:55:34.016Z,19.5
2022-10-22T14:57:35.991Z,19.4
2022-10-22T14:59:37.972Z,19.4
2022-10-22T15:01:39.946Z,19.2
2022-10-22T15:03:45.021Z,18.7
2022-10-22T15:05:46.978Z,18.6
2022-10-22T15:07:48.969Z,18.4
2022-10-22T15:10:05.815Z,18.1
2022-10-22T15:12:07.769Z,18
2022-10-22T15:24:22.757Z,17.5
2022-10-22T15:26:24.749Z,17.4
2022-10-22T15:28:26.725Z,17.3
2022-10-22T15:32:33.782Z,16.9
2022-10-22T15:34:35.765Z,17
2022-10-22T15:36:37.768Z,17
2022-10-22T15:38:39.751Z,16.8
2022-10-22T15:40:41.768Z,16.8
2022-10-22T15:42:43.968Z,16.7
2022-10-22T15:44:48.801Z,16.7
2022-10-22T15:48:52.797Z,16.7
2022-10-22T15:50:54.815Z,16.6
2022-10-22T15:52:56.815Z,16.6
2022-10-22T15:54:58.809Z,16.6
2022-10-22T15:57:00.819Z,16.4
2022-10-22T15:59:05.892Z,16.3
2022-10-22T16:01:07.952Z,16.3
2022-10-22T16:03:09.897Z,16.1
2022-10-22T16:06:14.449Z,16
2022-10-22T16:08:16.426Z,15.9
2022-10-22T16:10:18.437Z,15.9
2022-10-22T16:12:23.539Z,15.5
2022-10-22T16:14:25.532Z,15.5
2022-10-22T16:18:29.568Z,15.3
2022-10-22T16:20:31.587Z,15.1
2022-10-22T16:22:33.629Z,15
2022-10-22T16:24:35.655Z,14.8
2022-10-22T16:28:42.750Z,14.4
2022-10-22T16:30:44.784Z,14.2
2022-10-22T16:32:46.813Z,14
2022-10-22T16:34:48.849Z,13.9
2022-10-22T16:38:52.848Z,13.6
2022-10-22T16:40:57.952Z,13.4
2022-10-22T16:42:59.978Z,13.4
2022-10-22T16:45:02.057Z,13.3
2022-10-22T16:47:04.010Z,13.2
2022-10-22T16:49:06.053Z,13.1
2022-10-22T16:51:08.094Z,13
2022-10-22T16:53:10.130Z,12.9
2022-10-22T16:55:15.193Z,12.9
2022-10-22T16:57:17.225Z,12.9
2022-10-22T16:59:19.241Z,12.8
2022-10-22T17:00:21.808Z,12.7
2022-10-22T17:02:23.828Z,12.7
2022-10-22T17:04:25.837Z,12.7
2022-10-22T17:06:27.883Z,12.7
2022-10-22T17:08:33.055Z,12.5
2022-10-22T17:10:35.023Z,12.5
2022-10-22T17:12:37.035Z,12.4
2022-10-22T17:14:39.079Z,12.3
2022-10-22T17:16:41.121Z,12.3
2022-10-22T17:18:43.279Z,12.2
2022-10-22T17:22:50.276Z,12.2
2022-10-22T17:24:52.296Z,12.2
2022-10-22T17:26:54.413Z,12.2
2022-10-22T17:28:56.375Z,12.1
2022-10-22T17:30:58.397Z,12.1
2022-10-22T17:33:00.439Z,12
2022-10-22T17:35:02.498Z,12
2022-10-22T17:37:07.551Z,11.9
2022-10-22T17:41:14.543Z,12
2022-10-22T17:47:17.711Z,11.9
2022-10-22T17:49:19.724Z,11.8
2022-10-22T17:51:24.810Z,11.7
2022-10-22T17:53:26.862Z,11.7
2022-10-22T17:56:31.418Z,11.7
2022-10-22T17:58:33.470Z,11.7
2022-10-22T18:00:35.495Z,11.6
2022-10-22T18:02:37.519Z,11.6
2022-10-22T18:04:42.635Z,11.6
2022-10-22T18:06:44.782Z,11.5
2022-10-22T18:08:46.877Z,11.5
2022-10-22T18:10:48.718Z,11.5
2022-10-22T18:12:50.726Z,11.4
2022-10-22T18:14:52.764Z,11.5
2022-10-22T18:16:54.801Z,11.4
2022-10-22T18:18:59.891Z,11.3
2022-10-22T18:21:01.817Z,11.3
2022-10-22T18:23:03.835Z,11.2
2022-10-22T18:25:05.884Z,11.2
2022-10-22T18:27:07.900Z,11.2
2022-10-22T18:29:09.926Z,11.2
2022-10-22T18:35:19.103Z,11.2
2022-10-22T18:37:21.327Z,11.2
2022-10-22T18:45:29.240Z,11.2
2022-10-22T18:54:05.901Z,11.2
2022-10-22T18:56:03.055Z,11.2
2022-10-22T18:58:05.064Z,11.2
2022-10-22T19:00:10.168Z,11.2
2022-10-22T19:02:12.187Z,11.2
2022-10-22T19:04:14.201Z,11.1
2022-10-22T19:06:16.223Z,11.1
2022-10-22T19:08:18.237Z,11.1
2022-10-22T19:10:20.285Z,11.1
2022-10-22T19:12:22.311Z,11.1
2022-10-22T19:14:27.402Z,11.1
2022-10-22T19:16:29.436Z,11.1
2022-10-22T19:18:31.468Z,11.1
2022-10-22T19:20:33.492Z,11.1
2022-10-22T19:22:35.507Z,11.1
2022-10-22T19:24:37.528Z,11.1
2022-10-22T19:26:39.601Z,11
2022-10-22T19:28:44.662Z,11
2022-10-22T19:30:46.687Z,11
2022-10-22T19:34:50.753Z,11
2022-10-22T19:36:52.784Z,10.9
2022-10-22T19:40:56.824Z,10.9
2022-10-22T19:43:01.911Z,10.8
2022-10-22T19:45:03.937Z,10.8
2022-10-22T19:47:05.969Z,10.8
2022-10-22T19:48:08.521Z,10.8
2022-10-22T19:50:10.529Z,10.8
2022-10-22T19:52:12.568Z,10.8
2022-10-22T19:54:14.725Z,10.8
2022-10-22T19:56:19.691Z,10.8
2022-10-22T19:58:21.705Z,10.8
2022-10-22T20:00:23.715Z,10.7
2022-10-22T20:02:25.763Z,10.6
2022-10-22T20:04:27.929Z,10.6
2022-10-22T20:06:29.808Z,10.7
2022-10-22T20:08:31.952Z,10.7
2022-10-22T20:10:36.923Z,10.6
2022-10-22T20:12:38.937Z,10.6
2022-10-22T20:14:40.968Z,10.5
2022-10-22T20:16:42.985Z,10.5
2022-10-22T20:22:49.063Z,10.5
2022-10-22T20:24:54.158Z,10.5
2022-10-22T20:31:00.235Z,10.4
2022-10-22T20:33:02.252Z,10.4
2022-10-22T20:35:04.265Z,10.4
2022-10-22T20:37:06.311Z,10.4
2022-10-22T20:39:12.932Z,10.4
2022-10-22T20:41:14.895Z,10.4
2022-10-22T20:43:16.916Z,10.4
2022-10-22T20:44:19.455Z,10.3
2022-10-22T20:46:21.500Z,10.3
2022-10-22T20:48:23.542Z,10.4
2022-10-22T20:50:25.563Z,10.4
2022-10-22T20:54:32.674Z,10.3
2022-10-22T20:56:34.693Z,10.4
2022-10-22T20:58:36.721Z,10.3
2022-10-22T21:00:38.755Z,10.4
2022-10-22T21:02:40.770Z,10.4
2022-10-22T21:04:45.552Z,10.3
2022-10-22T21:06:47.866Z,10.3
2022-10-22T21:08:50.032Z,10.3
2022-10-22T21:10:51.969Z,10.2
2022-10-22T21:12:53.977Z,10.3
2022-10-22T21:14:56.002Z,10.4
2022-10-22T21:16:58.029Z,10.4
2022-10-22T21:19:00.059Z,10.4
2022-10-22T21:25:09.195Z,10.3
2022-10-22T21:27:11.200Z,10.2
2022-10-22T21:29:13.190Z,10.4
2022-10-22T21:35:22.319Z,10.3
2022-10-22T21:39:26.367Z,10.3
2022-10-22T21:40:28.939Z,10.3
2022-10-22T21:42:30.962Z,10.3
2022-10-22T21:44:32.955Z,10.3
2022-10-22T21:46:34.978Z,10.4
2022-10-22T21:48:40.082Z,10.5
2022-10-22T21:50:42.103Z,10.4
2022-10-22T21:52:44.126Z,10.4
2022-10-22T21:54:46.130Z,10.4
2022-10-22T21:56:48.146Z,10.5
2022-10-22T21:58:50.162Z,10.5
2022-10-22T22:00:52.275Z,10.5
2022-10-22T22:02:57.296Z,10.5
2022-10-22T22:04:59.295Z,10.5
2022-10-22T22:07:01.330Z,10.5
2022-10-22T22:09:03.454Z,10.5
2022-10-22T22:15:09.451Z,10.4
2022-10-22T22:17:14.528Z,10.5
2022-10-22T22:19:16.535Z,10.5
2022-10-22T22:21:18.547Z,10.5
2022-10-22T22:23:20.588Z,10.5
2022-10-22T22:25:22.583Z,10.5
2022-10-22T22:27:24.623Z,10.4
2022-10-22T22:29:26.650Z,10.4
2022-10-22T22:35:35.867Z,10.4
2022-10-22T22:37:58.729Z,10.4
2022-10-22T22:40:00.800Z,10.4
2022-10-22T22:42:02.802Z,10.4
2022-10-22T22:44:07.883Z,10.4
2022-10-22T22:46:09.906Z,10.4
2022-10-22T22:48:11.950Z,10.3
2022-10-22T22:52:16.110Z,10.4
2022-10-22T22:54:18.035Z,10.4
2022-10-22T22:56:20.073Z,10.4
2022-10-22T22:58:25.133Z,10.4
2022-10-22T23:00:27.203Z,10.3
2022-10-22T23:02:29.425Z,10.4
2022-10-22T23:04:31.235Z,10.3
2022-10-22T23:06:33.252Z,10.3
2022-10-22T23:08:35.351Z,10.3
2022-10-22T23:10:37.308Z,10.3
2022-10-22T23:12:42.560Z,10.4
2022-10-22T23:14:44.399Z,10.4
2022-10-22T23:16:46.437Z,10.4
2022-10-22T23:18:48.469Z,10.4
2022-10-22T23:20:50.480Z,10.4
2022-10-22T23:22:52.505Z,10.4
2022-10-22T23:24:54.521Z,10.4
2022-10-22T23:26:59.588Z,10.4
2022-10-22T23:29:01.616Z,10.4
2022-10-22T23:31:03.640Z,10.5
2022-10-22T23:32:06.180Z,10.5
2022-10-22T23:34:08.327Z,10.5
2022-10-22T23:36:10.230Z,10.5
2022-10-22T23:38:12.230Z,10.4
2022-10-22T23:40:17.332Z,10.4
2022-10-22T23:42:19.349Z,10.5
2022-10-22T23:44:21.377Z,10.5
2022-10-22T23:46:23.389Z,10.5
2022-10-22T23:48:25.408Z,10.5
2022-10-22T23:50:27.430Z,10.5
2022-10-22T23:52:29.462Z,10.5
2022-10-22T23:54:34.545Z,10.6
2022-10-22T23:56:36.573Z,10.6
2022-10-22T23:58:38.573Z,10.6
